Location:  
MeteoStar


Sort by weather type Sort by elevation Sort by visibility Sort from west to east north Sort from north to south Alphabetically Sort from strongest wind speed Sort from lowest to highest pressure Sort from highest to lowest dew point temperature Sort coolest temperatures to warmest Sort warm temperatures to coolest
 Metric

Current Observations for Saudi Arabia

Abha01:00ZNot Avail.59 23CALM596856
Al Ahsa01:00ZNot Avail.73 551011.6NNW 7 73587
Al Baha01:00ZNot Avail.64 25CALM645419
Al Qaysumah01:00ZNot Avail.68 521016.2N 6 681174
Al-Jouf01:00ZNot Avail.66 281016.4E 5 662260
Arar01:00ZNot Avail.61 391016.9NNE 4 611820
Bisha01:00ZNot Avail.61 191014.5CALM613828
Dhahran01:00ZNot Avail.75 701010.0WNW 7 7585
Gassim01:00ZNot Avail.70 431013.9N 9 702125
Gizan01:00ZNot Avail.86 751009.1CALM9519
Guriat01:00ZNot Avail.61 321016.1ENE 4 611669
Hail01:00ZNot Avail.66 341017.0ENE 2 663330
Jeddah King Abdul Aziz International Airport 01:00ZNot Avail.77 701008.1N 6 7749
Khamis Mushait01:00ZNot Avail.59 21CALM596778
King Khaled International Airport01:00ZNot Avail.75 461015.0S 4 752014
Madinah01:00ZNot Avail.77 191013.6CALM772145
Makkah01:00ZNot Avail.82 661007.9CALM841017
Najran01:00ZNot Avail.64 181013.9WSW 3 643976
Rafha01:00ZNot Avail.63 281016.0SSE 2 631473
Sharurah01:00ZNot Avail.73 371011.4E 5 732362
Tabuk01:00ZNot Avail.63 281014.1E 7 632552
Taif01:00ZNot Avail.63 501014.7CALM634849
Turaif01:00ZNot Avail.59 301017.4ENE 10 592667
Wadi Al Dawasser Airport01:00ZNot Avail.66 481012.2ESE 4 662047
Wejh01:00ZNot Avail.68 611010.1ENE 4 6865
Yenbo01:00ZNot Avail.72 641008.1NNW 4 7226

Atlantic
Tropical Watch